Aviation Digital Data Service (ADDS)

Output produced by TAFs form (2349 UTC 18 July 2018)
found at http://www.aviationweather.gov/adds/tafs/
 
RJEC 182300Z 33003KT 290V010 9999 FEW006 SCT008 BKN010 20/18 Q1012
TAF RJEC 182312Z 1900/2006 26005KT 9999 FEW008 BKN015 
     TEMPO 1900/1903 FEW005 BKN008 
     BECMG 1909/1911 18010KT
       
RJCH 182312Z 15004KT 7000 -SHRA FEW002 SCT009 BKN015 19/18 Q1012 RMK 1ST002 4ST009 7ST015 A2990
TAF RJCH 182318Z 1900/2006 14010KT 9999 FEW008 BKN015 
     TEMPO 1900/1903 FEW003 BKN008 
     BECMG 1912/1915 24005KT 
     TEMPO 1912/1918 3000 BR FEW003 BKN006 
     TEMPO 1918/2000 1500 BR FEW001 BKN003 
     TEMPO 2000/2003 FEW003 BKN005
       
RJCK 182325Z 20009KT 4900 BR FEW001 BKN003 BKN004 16/15 Q1013 RMK 1ST001 5ST003 6ST004 A2992
TAF RJCK 182316Z 1900/2006 19010KT 9999 FEW004 BKN015 
     TEMPO 1900/1906 4000 BR FEW002 BKN004 
     TEMPO 1906/1915 0700 -SHRA FG VV001 
     TEMPO 1915/2000 0500 -SHRA FG VV001 
     TEMPO 2000/2006 FEW002 BKN005
       
RJCB 182300Z VRB02KT 3200 -DZ BR FEW002 SCT003 BKN004 16/15 Q1013
TAF RJCB 182309Z 1900/2006 15007KT 9999 FEW008 SCT015 
     TEMPO 1900/1903 3000 -DZ BR FEW003 BKN005 
     BECMG 1909/1911 05003KT 
     TEMPO 1909/1912 3000 BR FEW002 BKN005 
     TEMPO 1912/2000 0700 FG VV001 
     TEMPO 2000/2003 FEW003 BKN008
       
RJCM 182300Z 22003KT 150V300 9999 FEW010 BKN/// 20/15 Q1011
TAF RJCM 182320Z 1900/2006 18005KT 9999 FEW015 SCT030 
     BECMG 1900/1902 05006KT 
     BECMG 1908/1910 18010KT
       
RJSA 182321Z 06002KT 3000 BCFG BR SCT001 BKN002 BKN004 20/20 Q1012 RMK 4ST001 5ST002 7ST004 A2990
TAF RJSA 182309Z 1900/2006 03005KT 1500 BR FEW001 BKN003 BKN005 
     BECMG 1901/1903 9999 NSW FEW010 SCT030 
     TEMPO 1909/1912 3000 BR FEW002 BKN005 BKN010 
     TEMPO 1912/1921 1500 BR FEW001 BKN003 BKN005 
     BECMG 1918/1921 24008KT
       
RJSK 182330Z VRB02KT 6000 FEW001 SCT002 BKN015 23/22 Q1012 RMK 1ST001 3ST002 6CU015 A2990
TAF RJSK 182318Z 1900/2006 27005KT 9999 FEW010 SCT020 
     TEMPO 1900/1902 4000 BR FEW005 BKN008 BKN015 
     BECMG 1912/1915 14004KT 
     TEMPO 1915/2000 1500 BR FEW001 BKN003 BKN005 
     BECMG 2000/2003 28008KT
       
RJSS 182325Z VRB01KT 6000 FEW007 SCT009 BKN011 26/26 Q1011 RMK 1ST007 4ST009 7ST011 A2987
TAF RJSS 182305Z 1900/2006 12006KT 9999 FEW010 
     TEMPO 1900/1902 FEW005 BKN008 
     TEMPO 1909/1912 FEW002 BKN005 
     TEMPO 1912/2000 3000 BR FEW002 BKN005
       
RJSF 182300Z VRB02KT 5000 BR FEW050 BKN/// 26/26 Q1013
TAF RJSF 182308Z 1900/2006 20003KT 9999 FEW020 SCT040 
     TEMPO 1915/1921 4000 BR FEW005 BKN008 BKN015 
     BECMG 1921/2000 36005KT
       
RJSN 182300Z 21004KT 150V260 8000 FEW040 BKN/// 29/22 Q1011
TAF RJSN 182306Z 1900/2006 34008KT 9999 FEW030 
     BECMG 1908/1910 04004KT 
     BECMG 2000/2003 33012KT